<?xml version="1.0" encoding="UTF-8" standalone="no" ?>
<gpx xmlns="http://www.topografix.com/GPX/1/1" xmlns:xsi="http://www.w3.org/2001/XMLSchema-instance" xsi:schemaLocation="http://www.topografix.com/GPX/1/1 http://www.topografix.com/GPX/1/1/gpx.xsd" version="1.1" creator="VisuGPX - https://www.visugpx.com">
  <metadata>
    <name>givry par les madones de saint denis de vaux</name>
  </metadata>
  <trk>
    <name><![CDATA[givry par les madones de saint denis de vaux_1]]></name>
    <extensions>
      <line xmlns="http://www.topografix.com/GPX/gpx_style/0/2">
        <color>0000FF</color>
        <width>4</width>
      </line>
    </extensions>
    <trkseg>
      <trkpt lat="46.78152" lon="4.73784">
        <ele>226</ele>
        <time>2020-06-13T16:40:23Z</time>
      </trkpt>
      <trkpt lat="46.78198" lon="4.73701">
        <ele>228</ele>
        <time>2020-06-13T16:42:00Z</time>
      </trkpt>
      <trkpt lat="46.78244" lon="4.73575">
        <ele>234</ele>
        <time>2020-06-13T16:44:11Z</time>
      </trkpt>
      <trkpt lat="46.78269" lon="4.73455">
        <ele>239</ele>
        <time>2020-06-13T16:46:05Z</time>
      </trkpt>
      <trkpt lat="46.78227" lon="4.73418">
        <ele>239</ele>
        <time>2020-06-13T16:47:11Z</time>
      </trkpt>
      <trkpt lat="46.78246" lon="4.73361">
        <ele>242</ele>
        <time>2020-06-13T16:48:09Z</time>
      </trkpt>
      <trkpt lat="46.78259" lon="4.73312">
        <ele>246</ele>
        <time>2020-06-13T16:48:57Z</time>
      </trkpt>
      <trkpt lat="46.78265" lon="4.73275">
        <ele>249</ele>
        <time>2020-06-13T16:49:31Z</time>
      </trkpt>
      <trkpt lat="46.78268" lon="4.7324">
        <ele>252</ele>
        <time>2020-06-13T16:50:04Z</time>
      </trkpt>
      <trkpt lat="46.78278" lon="4.73137">
        <ele>259</ele>
        <time>2020-06-13T16:51:39Z</time>
      </trkpt>
      <trkpt lat="46.78274" lon="4.73112">
        <ele>261</ele>
        <time>2020-06-13T16:52:02Z</time>
      </trkpt>
      <trkpt lat="46.78266" lon="4.7308">
        <ele>263</ele>
        <time>2020-06-13T16:52:33Z</time>
      </trkpt>
      <trkpt lat="46.78273" lon="4.73048">
        <ele>267</ele>
        <time>2020-06-13T16:53:04Z</time>
      </trkpt>
      <trkpt lat="46.78275" lon="4.73021">
        <ele>271</ele>
        <time>2020-06-13T16:53:29Z</time>
      </trkpt>
      <trkpt lat="46.78269" lon="4.72984">
        <ele>276</ele>
        <time>2020-06-13T16:54:04Z</time>
      </trkpt>
      <trkpt lat="46.78257" lon="4.72965">
        <ele>279</ele>
        <time>2020-06-13T16:54:27Z</time>
      </trkpt>
      <trkpt lat="46.78217" lon="4.72964">
        <ele>275</ele>
        <time>2020-06-13T16:55:21Z</time>
      </trkpt>
      <trkpt lat="46.78197" lon="4.72961">
        <ele>273</ele>
        <time>2020-06-13T16:55:47Z</time>
      </trkpt>
      <trkpt lat="46.78185" lon="4.72955">
        <ele>273</ele>
        <time>2020-06-13T16:56:04Z</time>
      </trkpt>
      <trkpt lat="46.78165" lon="4.72934">
        <ele>275</ele>
        <time>2020-06-13T16:56:37Z</time>
      </trkpt>
      <trkpt lat="46.78113" lon="4.72893">
        <ele>273</ele>
        <time>2020-06-13T16:57:56Z</time>
      </trkpt>
      <trkpt lat="46.78045" lon="4.72855">
        <ele>266</ele>
        <time>2020-06-13T16:59:33Z</time>
      </trkpt>
      <trkpt lat="46.78013" lon="4.7285">
        <ele>260</ele>
        <time>2020-06-13T17:00:16Z</time>
      </trkpt>
      <trkpt lat="46.77987" lon="4.72873">
        <ele>255</ele>
        <time>2020-06-13T17:00:57Z</time>
      </trkpt>
      <trkpt lat="46.77968" lon="4.72918">
        <ele>249</ele>
        <time>2020-06-13T17:01:45Z</time>
      </trkpt>
      <trkpt lat="46.77958" lon="4.72948">
        <ele>246</ele>
        <time>2020-06-13T17:02:16Z</time>
      </trkpt>
      <trkpt lat="46.77924" lon="4.72953">
        <ele>244</ele>
        <time>2020-06-13T17:03:01Z</time>
      </trkpt>
      <trkpt lat="46.77921" lon="4.72948">
        <ele>244</ele>
        <time>2020-06-13T17:03:07Z</time>
      </trkpt>
      <trkpt lat="46.77896" lon="4.72924">
        <ele>244</ele>
        <time>2020-06-13T17:03:47Z</time>
      </trkpt>
      <trkpt lat="46.77866" lon="4.729">
        <ele>245</ele>
        <time>2020-06-13T17:04:33Z</time>
      </trkpt>
      <trkpt lat="46.77832" lon="4.72863">
        <ele>245</ele>
        <time>2020-06-13T17:05:29Z</time>
      </trkpt>
      <trkpt lat="46.77805" lon="4.72811">
        <ele>246</ele>
        <time>2020-06-13T17:06:29Z</time>
      </trkpt>
      <trkpt lat="46.77779" lon="4.7275">
        <ele>247</ele>
        <time>2020-06-13T17:07:35Z</time>
      </trkpt>
      <trkpt lat="46.77752" lon="4.72701">
        <ele>248</ele>
        <time>2020-06-13T17:08:32Z</time>
      </trkpt>
      <trkpt lat="46.7769" lon="4.7265">
        <ele>247</ele>
        <time>2020-06-13T17:10:07Z</time>
      </trkpt>
      <trkpt lat="46.77634" lon="4.72605">
        <ele>247</ele>
        <time>2020-06-13T17:11:32Z</time>
      </trkpt>
      <trkpt lat="46.77582" lon="4.72566">
        <ele>247</ele>
        <time>2020-06-13T17:12:50Z</time>
      </trkpt>
      <trkpt lat="46.77531" lon="4.7253">
        <ele>247</ele>
        <time>2020-06-13T17:14:06Z</time>
      </trkpt>
      <trkpt lat="46.77509" lon="4.72512">
        <ele>248</ele>
        <time>2020-06-13T17:14:40Z</time>
      </trkpt>
      <trkpt lat="46.77402" lon="4.72448">
        <ele>251</ele>
        <time>2020-06-13T17:17:14Z</time>
      </trkpt>
      <trkpt lat="46.77413" lon="4.72419">
        <ele>253</ele>
        <time>2020-06-13T17:17:44Z</time>
      </trkpt>
      <trkpt lat="46.77435" lon="4.72333">
        <ele>255</ele>
        <time>2020-06-13T17:19:08Z</time>
      </trkpt>
      <trkpt lat="46.7745" lon="4.72246">
        <ele>256</ele>
        <time>2020-06-13T17:20:30Z</time>
      </trkpt>
      <trkpt lat="46.77422" lon="4.72225">
        <ele>258</ele>
        <time>2020-06-13T17:21:12Z</time>
      </trkpt>
      <trkpt lat="46.77414" lon="4.72197">
        <ele>259</ele>
        <time>2020-06-13T17:21:40Z</time>
      </trkpt>
      <trkpt lat="46.77424" lon="4.72159">
        <ele>260</ele>
        <time>2020-06-13T17:22:17Z</time>
      </trkpt>
      <trkpt lat="46.77423" lon="4.72106">
        <ele>262</ele>
        <time>2020-06-13T17:23:06Z</time>
      </trkpt>
      <trkpt lat="46.77411" lon="4.72002">
        <ele>268</ele>
        <time>2020-06-13T17:24:42Z</time>
      </trkpt>
      <trkpt lat="46.77403" lon="4.7184">
        <ele>284</ele>
        <time>2020-06-13T17:27:10Z</time>
      </trkpt>
      <trkpt lat="46.77378" lon="4.71776">
        <ele>293</ele>
        <time>2020-06-13T17:28:18Z</time>
      </trkpt>
      <trkpt lat="46.7735" lon="4.71692">
        <ele>304</ele>
        <time>2020-06-13T17:29:43Z</time>
      </trkpt>
      <trkpt lat="46.77347" lon="4.7167">
        <ele>306</ele>
        <time>2020-06-13T17:30:04Z</time>
      </trkpt>
      <trkpt lat="46.7733" lon="4.71587">
        <ele>314</ele>
        <time>2020-06-13T17:31:23Z</time>
      </trkpt>
      <trkpt lat="46.77317" lon="4.7151">
        <ele>320</ele>
        <time>2020-06-13T17:32:35Z</time>
      </trkpt>
      <trkpt lat="46.77299" lon="4.7142">
        <ele>327</ele>
        <time>2020-06-13T17:34:01Z</time>
      </trkpt>
      <trkpt lat="46.77291" lon="4.71359">
        <ele>331</ele>
        <time>2020-06-13T17:34:58Z</time>
      </trkpt>
      <trkpt lat="46.77294" lon="4.71302">
        <ele>333</ele>
        <time>2020-06-13T17:35:50Z</time>
      </trkpt>
      <trkpt lat="46.77298" lon="4.71278">
        <ele>333</ele>
        <time>2020-06-13T17:36:13Z</time>
      </trkpt>
      <trkpt lat="46.77291" lon="4.71234">
        <ele>331</ele>
        <time>2020-06-13T17:36:54Z</time>
      </trkpt>
      <trkpt lat="46.77283" lon="4.71212">
        <ele>329</ele>
        <time>2020-06-13T17:37:17Z</time>
      </trkpt>
      <trkpt lat="46.7727" lon="4.7119">
        <ele>326</ele>
        <time>2020-06-13T17:37:43Z</time>
      </trkpt>
      <trkpt lat="46.77268" lon="4.71169">
        <ele>325</ele>
        <time>2020-06-13T17:38:03Z</time>
      </trkpt>
      <trkpt lat="46.77273" lon="4.71155">
        <ele>325</ele>
        <time>2020-06-13T17:38:17Z</time>
      </trkpt>
      <trkpt lat="46.7728" lon="4.71144">
        <ele>325</ele>
        <time>2020-06-13T17:38:31Z</time>
      </trkpt>
      <trkpt lat="46.77292" lon="4.7112">
        <ele>325</ele>
        <time>2020-06-13T17:38:58Z</time>
      </trkpt>
      <trkpt lat="46.77311" lon="4.71041">
        <ele>323</ele>
        <time>2020-06-13T17:40:14Z</time>
      </trkpt>
      <trkpt lat="46.77314" lon="4.70969">
        <ele>320</ele>
        <time>2020-06-13T17:41:20Z</time>
      </trkpt>
      <trkpt lat="46.77319" lon="4.7094">
        <ele>319</ele>
        <time>2020-06-13T17:41:48Z</time>
      </trkpt>
      <trkpt lat="46.77329" lon="4.70916">
        <ele>319</ele>
        <time>2020-06-13T17:42:13Z</time>
      </trkpt>
      <trkpt lat="46.77339" lon="4.70879">
        <ele>319</ele>
        <time>2020-06-13T17:42:50Z</time>
      </trkpt>
      <trkpt lat="46.77343" lon="4.70859">
        <ele>319</ele>
        <time>2020-06-13T17:43:09Z</time>
      </trkpt>
      <trkpt lat="46.77343" lon="4.70821">
        <ele>317</ele>
        <time>2020-06-13T17:43:43Z</time>
      </trkpt>
      <trkpt lat="46.7734" lon="4.7077">
        <ele>316</ele>
        <time>2020-06-13T17:44:30Z</time>
      </trkpt>
      <trkpt lat="46.77342" lon="4.70714">
        <ele>313</ele>
        <time>2020-06-13T17:45:21Z</time>
      </trkpt>
      <trkpt lat="46.77355" lon="4.70712">
        <ele>316</ele>
        <time>2020-06-13T17:45:39Z</time>
      </trkpt>
      <trkpt lat="46.77385" lon="4.70733">
        <ele>323</ele>
        <time>2020-06-13T17:46:23Z</time>
      </trkpt>
      <trkpt lat="46.77411" lon="4.70751">
        <ele>330</ele>
        <time>2020-06-13T17:47:02Z</time>
      </trkpt>
      <trkpt lat="46.77508" lon="4.7071">
        <ele>350</ele>
        <time>2020-06-13T17:49:16Z</time>
      </trkpt>
      <trkpt lat="46.77586" lon="4.70695">
        <ele>363</ele>
        <time>2020-06-13T17:51:01Z</time>
      </trkpt>
      <trkpt lat="46.77668" lon="4.70633">
        <ele>367</ele>
        <time>2020-06-13T17:53:05Z</time>
      </trkpt>
      <trkpt lat="46.77697" lon="4.70609">
        <ele>365</ele>
        <time>2020-06-13T17:53:49Z</time>
      </trkpt>
      <trkpt lat="46.77731" lon="4.70592">
        <ele>365</ele>
        <time>2020-06-13T17:54:37Z</time>
      </trkpt>
      <trkpt lat="46.77755" lon="4.7059">
        <ele>366</ele>
        <time>2020-06-13T17:55:09Z</time>
      </trkpt>
      <trkpt lat="46.77765" lon="4.70581">
        <ele>367</ele>
        <time>2020-06-13T17:55:25Z</time>
      </trkpt>
      <trkpt lat="46.77768" lon="4.70571">
        <ele>368</ele>
        <time>2020-06-13T17:55:35Z</time>
      </trkpt>
      <trkpt lat="46.7778" lon="4.70563">
        <ele>370</ele>
        <time>2020-06-13T17:55:52Z</time>
      </trkpt>
      <trkpt lat="46.77789" lon="4.70564">
        <ele>370</ele>
        <time>2020-06-13T17:56:05Z</time>
      </trkpt>
      <trkpt lat="46.77808" lon="4.70584">
        <ele>369</ele>
        <time>2020-06-13T17:56:36Z</time>
      </trkpt>
      <trkpt lat="46.77831" lon="4.70603">
        <ele>368</ele>
        <time>2020-06-13T17:57:11Z</time>
      </trkpt>
      <trkpt lat="46.77896" lon="4.7062">
        <ele>366</ele>
        <time>2020-06-13T17:58:39Z</time>
      </trkpt>
      <trkpt lat="46.77918" lon="4.70629">
        <ele>365</ele>
        <time>2020-06-13T17:59:10Z</time>
      </trkpt>
      <trkpt lat="46.77938" lon="4.70636">
        <ele>365</ele>
        <time>2020-06-13T17:59:37Z</time>
      </trkpt>
      <trkpt lat="46.77942" lon="4.70616">
        <ele>368</ele>
        <time>2020-06-13T17:59:56Z</time>
      </trkpt>
      <trkpt lat="46.7793" lon="4.70583">
        <ele>373</ele>
        <time>2020-06-13T18:00:30Z</time>
      </trkpt>
      <trkpt lat="46.77921" lon="4.70556">
        <ele>376</ele>
        <time>2020-06-13T18:00:58Z</time>
      </trkpt>
      <trkpt lat="46.77922" lon="4.70556">
        <ele>376</ele>
        <time>2020-06-13T18:00:59Z</time>
      </trkpt>
      <trkpt lat="46.77936" lon="4.70454">
        <ele>387</ele>
        <time>2020-06-13T18:02:34Z</time>
      </trkpt>
      <trkpt lat="46.7794" lon="4.70426">
        <ele>389</ele>
        <time>2020-06-13T18:03:00Z</time>
      </trkpt>
      <trkpt lat="46.77938" lon="4.70378">
        <ele>393</ele>
        <time>2020-06-13T18:03:44Z</time>
      </trkpt>
      <trkpt lat="46.77922" lon="4.70279">
        <ele>400</ele>
        <time>2020-06-13T18:05:17Z</time>
      </trkpt>
      <trkpt lat="46.77923" lon="4.70224">
        <ele>405</ele>
        <time>2020-06-13T18:06:07Z</time>
      </trkpt>
      <trkpt lat="46.77957" lon="4.70154">
        <ele>410</ele>
        <time>2020-06-13T18:07:26Z</time>
      </trkpt>
      <trkpt lat="46.77974" lon="4.70093">
        <ele>410</ele>
        <time>2020-06-13T18:08:26Z</time>
      </trkpt>
      <trkpt lat="46.7799" lon="4.70041">
        <ele>412</ele>
        <time>2020-06-13T18:09:18Z</time>
      </trkpt>
      <trkpt lat="46.77995" lon="4.70002">
        <ele>414</ele>
        <time>2020-06-13T18:09:54Z</time>
      </trkpt>
      <trkpt lat="46.7799" lon="4.69976">
        <ele>413</ele>
        <time>2020-06-13T18:10:19Z</time>
      </trkpt>
      <trkpt lat="46.78012" lon="4.69961">
        <ele>417</ele>
        <time>2020-06-13T18:10:51Z</time>
      </trkpt>
      <trkpt lat="46.78022" lon="4.69971">
        <ele>418</ele>
        <time>2020-06-13T18:11:08Z</time>
      </trkpt>
      <trkpt lat="46.7805" lon="4.69947">
        <ele>420</ele>
        <time>2020-06-13T18:11:51Z</time>
      </trkpt>
      <trkpt lat="46.78078" lon="4.69945">
        <ele>423</ele>
        <time>2020-06-13T18:12:28Z</time>
      </trkpt>
      <trkpt lat="46.78151" lon="4.69964">
        <ele>427</ele>
        <time>2020-06-13T18:14:07Z</time>
      </trkpt>
      <trkpt lat="46.78225" lon="4.69983">
        <ele>431</ele>
        <time>2020-06-13T18:15:48Z</time>
      </trkpt>
      <trkpt lat="46.78296" lon="4.70034">
        <ele>434</ele>
        <time>2020-06-13T18:17:33Z</time>
      </trkpt>
      <trkpt lat="46.78384" lon="4.70101">
        <ele>441</ele>
        <time>2020-06-13T18:19:46Z</time>
      </trkpt>
      <trkpt lat="46.78444" lon="4.70173">
        <ele>442</ele>
        <time>2020-06-13T18:21:29Z</time>
      </trkpt>
      <trkpt lat="46.7847" lon="4.70244">
        <ele>440</ele>
        <time>2020-06-13T18:22:43Z</time>
      </trkpt>
      <trkpt lat="46.78472" lon="4.70265">
        <ele>439</ele>
        <time>2020-06-13T18:23:02Z</time>
      </trkpt>
      <trkpt lat="46.7849" lon="4.70307">
        <ele>438</ele>
        <time>2020-06-13T18:23:47Z</time>
      </trkpt>
      <trkpt lat="46.78543" lon="4.70428">
        <ele>435</ele>
        <time>2020-06-13T18:25:59Z</time>
      </trkpt>
      <trkpt lat="46.78579" lon="4.70593">
        <ele>435</ele>
        <time>2020-06-13T18:28:37Z</time>
      </trkpt>
      <trkpt lat="46.78583" lon="4.70621">
        <ele>435</ele>
        <time>2020-06-13T18:29:03Z</time>
      </trkpt>
      <trkpt lat="46.78589" lon="4.7064">
        <ele>435</ele>
        <time>2020-06-13T18:29:22Z</time>
      </trkpt>
      <trkpt lat="46.78599" lon="4.70659">
        <ele>435</ele>
        <time>2020-06-13T18:29:44Z</time>
      </trkpt>
      <trkpt lat="46.78663" lon="4.70692">
        <ele>433</ele>
        <time>2020-06-13T18:31:15Z</time>
      </trkpt>
      <trkpt lat="46.78721" lon="4.70712">
        <ele>431</ele>
        <time>2020-06-13T18:32:34Z</time>
      </trkpt>
      <trkpt lat="46.78753" lon="4.70729">
        <ele>430</ele>
        <time>2020-06-13T18:33:20Z</time>
      </trkpt>
      <trkpt lat="46.78853" lon="4.70646">
        <ele>424</ele>
        <time>2020-06-13T18:35:53Z</time>
      </trkpt>
      <trkpt lat="46.78911" lon="4.70614">
        <ele>420</ele>
        <time>2020-06-13T18:37:16Z</time>
      </trkpt>
      <trkpt lat="46.78957" lon="4.70605">
        <ele>417</ele>
        <time>2020-06-13T18:38:18Z</time>
      </trkpt>
      <trkpt lat="46.78988" lon="4.70609">
        <ele>416</ele>
        <time>2020-06-13T18:38:59Z</time>
      </trkpt>
      <trkpt lat="46.79004" lon="4.70579">
        <ele>414</ele>
        <time>2020-06-13T18:39:34Z</time>
      </trkpt>
      <trkpt lat="46.7901" lon="4.70539">
        <ele>410</ele>
        <time>2020-06-13T18:40:12Z</time>
      </trkpt>
      <trkpt lat="46.79008" lon="4.70453">
        <ele>404</ele>
        <time>2020-06-13T18:41:30Z</time>
      </trkpt>
      <trkpt lat="46.7899" lon="4.70383">
        <ele>399</ele>
        <time>2020-06-13T18:42:38Z</time>
      </trkpt>
      <trkpt lat="46.78986" lon="4.70344">
        <ele>395</ele>
        <time>2020-06-13T18:43:14Z</time>
      </trkpt>
      <trkpt lat="46.78987" lon="4.70334">
        <ele>394</ele>
        <time>2020-06-13T18:43:24Z</time>
      </trkpt>
      <trkpt lat="46.79002" lon="4.7036">
        <ele>395</ele>
        <time>2020-06-13T18:43:55Z</time>
      </trkpt>
      <trkpt lat="46.79019" lon="4.70377">
        <ele>395</ele>
        <time>2020-06-13T18:44:22Z</time>
      </trkpt>
      <trkpt lat="46.79041" lon="4.70374">
        <ele>392</ele>
        <time>2020-06-13T18:44:52Z</time>
      </trkpt>
      <trkpt lat="46.79059" lon="4.70369">
        <ele>389</ele>
        <time>2020-06-13T18:45:16Z</time>
      </trkpt>
      <trkpt lat="46.79089" lon="4.70345">
        <ele>382</ele>
        <time>2020-06-13T18:46:02Z</time>
      </trkpt>
      <trkpt lat="46.79102" lon="4.70363">
        <ele>383</ele>
        <time>2020-06-13T18:46:26Z</time>
      </trkpt>
      <trkpt lat="46.79114" lon="4.7038">
        <ele>385</ele>
        <time>2020-06-13T18:46:48Z</time>
      </trkpt>
      <trkpt lat="46.79125" lon="4.704">
        <ele>386</ele>
        <time>2020-06-13T18:47:12Z</time>
      </trkpt>
      <trkpt lat="46.79138" lon="4.70414">
        <ele>386</ele>
        <time>2020-06-13T18:47:33Z</time>
      </trkpt>
      <trkpt lat="46.79166" lon="4.70424">
        <ele>384</ele>
        <time>2020-06-13T18:48:12Z</time>
      </trkpt>
      <trkpt lat="46.79198" lon="4.70428">
        <ele>380</ele>
        <time>2020-06-13T18:48:54Z</time>
      </trkpt>
      <trkpt lat="46.79214" lon="4.70436">
        <ele>379</ele>
        <time>2020-06-13T18:49:17Z</time>
      </trkpt>
      <trkpt lat="46.79208" lon="4.70605">
        <ele>397</ele>
        <time>2020-06-13T18:51:52Z</time>
      </trkpt>
      <trkpt lat="46.79218" lon="4.70646">
        <ele>401</ele>
        <time>2020-06-13T18:52:31Z</time>
      </trkpt>
      <trkpt lat="46.79208" lon="4.70712">
        <ele>403</ele>
        <time>2020-06-13T18:53:33Z</time>
      </trkpt>
      <trkpt lat="46.79256" lon="4.70734">
        <ele>401</ele>
        <time>2020-06-13T18:54:40Z</time>
      </trkpt>
      <trkpt lat="46.79317" lon="4.70779">
        <ele>396</ele>
        <time>2020-06-13T18:56:11Z</time>
      </trkpt>
      <trkpt lat="46.79455" lon="4.70839">
        <ele>386</ele>
        <time>2020-06-13T18:59:24Z</time>
      </trkpt>
      <trkpt lat="46.79565" lon="4.70888">
        <ele>377</ele>
        <time>2020-06-13T19:01:57Z</time>
      </trkpt>
      <trkpt lat="46.79582" lon="4.70921">
        <ele>378</ele>
        <time>2020-06-13T19:02:35Z</time>
      </trkpt>
      <trkpt lat="46.79528" lon="4.71002">
        <ele>379</ele>
        <time>2020-06-13T19:04:18Z</time>
      </trkpt>
      <trkpt lat="46.7951" lon="4.71075">
        <ele>380</ele>
        <time>2020-06-13T19:05:29Z</time>
      </trkpt>
      <trkpt lat="46.79546" lon="4.71167">
        <ele>376</ele>
        <time>2020-06-13T19:07:06Z</time>
      </trkpt>
      <trkpt lat="46.79574" lon="4.71247">
        <ele>372</ele>
        <time>2020-06-13T19:08:28Z</time>
      </trkpt>
      <trkpt lat="46.79616" lon="4.71287">
        <ele>369</ele>
        <time>2020-06-13T19:09:35Z</time>
      </trkpt>
      <trkpt lat="46.79631" lon="4.71324">
        <ele>366</ele>
        <time>2020-06-13T19:10:14Z</time>
      </trkpt>
      <trkpt lat="46.79696" lon="4.71367">
        <ele>361</ele>
        <time>2020-06-13T19:11:49Z</time>
      </trkpt>
      <trkpt lat="46.79669" lon="4.71526">
        <ele>353</ele>
        <time>2020-06-13T19:14:19Z</time>
      </trkpt>
      <trkpt lat="46.79712" lon="4.71566">
        <ele>353</ele>
        <time>2020-06-13T19:15:27Z</time>
      </trkpt>
      <trkpt lat="46.79782" lon="4.71566">
        <ele>351</ele>
        <time>2020-06-13T19:17:00Z</time>
      </trkpt>
      <trkpt lat="46.79842" lon="4.71556">
        <ele>346</ele>
        <time>2020-06-13T19:18:21Z</time>
      </trkpt>
      <trkpt lat="46.79913" lon="4.71573">
        <ele>337</ele>
        <time>2020-06-13T19:19:57Z</time>
      </trkpt>
      <trkpt lat="46.79981" lon="4.71603">
        <ele>327</ele>
        <time>2020-06-13T19:21:32Z</time>
      </trkpt>
      <trkpt lat="46.80064" lon="4.7163">
        <ele>315</ele>
        <time>2020-06-13T19:23:25Z</time>
      </trkpt>
      <trkpt lat="46.80095" lon="4.71629">
        <ele>311</ele>
        <time>2020-06-13T19:24:07Z</time>
      </trkpt>
      <trkpt lat="46.80186" lon="4.71648">
        <ele>305</ele>
        <time>2020-06-13T19:26:09Z</time>
      </trkpt>
      <trkpt lat="46.80318" lon="4.71665">
        <ele>294</ele>
        <time>2020-06-13T19:29:06Z</time>
      </trkpt>
      <trkpt lat="46.80355" lon="4.71668">
        <ele>289</ele>
        <time>2020-06-13T19:29:56Z</time>
      </trkpt>
      <trkpt lat="46.80389" lon="4.71684">
        <ele>285</ele>
        <time>2020-06-13T19:30:43Z</time>
      </trkpt>
      <trkpt lat="46.80427" lon="4.71698">
        <ele>280</ele>
        <time>2020-06-13T19:31:35Z</time>
      </trkpt>
      <trkpt lat="46.80462" lon="4.7173">
        <ele>276</ele>
        <time>2020-06-13T19:32:31Z</time>
      </trkpt>
      <trkpt lat="46.80478" lon="4.71768">
        <ele>276</ele>
        <time>2020-06-13T19:33:11Z</time>
      </trkpt>
      <trkpt lat="46.80536" lon="4.71779">
        <ele>268</ele>
        <time>2020-06-13T19:34:29Z</time>
      </trkpt>
      <trkpt lat="46.80631" lon="4.7184">
        <ele>260</ele>
        <time>2020-06-13T19:36:48Z</time>
      </trkpt>
      <trkpt lat="46.80728" lon="4.7188">
        <ele>251</ele>
        <time>2020-06-13T19:39:02Z</time>
      </trkpt>
      <trkpt lat="46.80815" lon="4.71927">
        <ele>244</ele>
        <time>2020-06-13T19:41:06Z</time>
      </trkpt>
      <trkpt lat="46.80853" lon="4.71929">
        <ele>239</ele>
        <time>2020-06-13T19:41:57Z</time>
      </trkpt>
      <trkpt lat="46.80906" lon="4.71968">
        <ele>237</ele>
        <time>2020-06-13T19:43:16Z</time>
      </trkpt>
      <trkpt lat="46.80985" lon="4.72013">
        <ele>232</ele>
        <time>2020-06-13T19:45:09Z</time>
      </trkpt>
      <trkpt lat="46.81053" lon="4.72013">
        <ele>223</ele>
        <time>2020-06-13T19:46:40Z</time>
      </trkpt>
      <trkpt lat="46.81081" lon="4.72062">
        <ele>221</ele>
        <time>2020-06-13T19:47:38Z</time>
      </trkpt>
      <trkpt lat="46.81099" lon="4.72064">
        <ele>220</ele>
        <time>2020-06-13T19:48:02Z</time>
      </trkpt>
      <trkpt lat="46.81105" lon="4.72216">
        <ele>219</ele>
        <time>2020-06-13T19:50:21Z</time>
      </trkpt>
      <trkpt lat="46.81063" lon="4.72418">
        <ele>216</ele>
        <time>2020-06-13T19:53:34Z</time>
      </trkpt>
      <trkpt lat="46.80987" lon="4.72468">
        <ele>220</ele>
        <time>2020-06-13T19:55:25Z</time>
      </trkpt>
      <trkpt lat="46.80981" lon="4.72571">
        <ele>218</ele>
        <time>2020-06-13T19:57:00Z</time>
      </trkpt>
      <trkpt lat="46.80998" lon="4.72665">
        <ele>216</ele>
        <time>2020-06-13T19:58:29Z</time>
      </trkpt>
      <trkpt lat="46.80991" lon="4.7269">
        <ele>216</ele>
        <time>2020-06-13T19:58:53Z</time>
      </trkpt>
      <trkpt lat="46.80948" lon="4.72689">
        <ele>216</ele>
        <time>2020-06-13T19:59:51Z</time>
      </trkpt>
      <trkpt lat="46.80891" lon="4.72722">
        <ele>218</ele>
        <time>2020-06-13T20:01:13Z</time>
      </trkpt>
      <trkpt lat="46.80882" lon="4.72779">
        <ele>219</ele>
        <time>2020-06-13T20:02:06Z</time>
      </trkpt>
      <trkpt lat="46.80785" lon="4.72858">
        <ele>219</ele>
        <time>2020-06-13T20:04:34Z</time>
      </trkpt>
      <trkpt lat="46.80747" lon="4.72914">
        <ele>218</ele>
        <time>2020-06-13T20:05:46Z</time>
      </trkpt>
      <trkpt lat="46.80722" lon="4.72973">
        <ele>219</ele>
        <time>2020-06-13T20:06:50Z</time>
      </trkpt>
      <trkpt lat="46.80705" lon="4.73034">
        <ele>220</ele>
        <time>2020-06-13T20:07:50Z</time>
      </trkpt>
      <trkpt lat="46.80697" lon="4.73096">
        <ele>220</ele>
        <time>2020-06-13T20:08:47Z</time>
      </trkpt>
      <trkpt lat="46.80565" lon="4.73176">
        <ele>223</ele>
        <time>2020-06-13T20:11:58Z</time>
      </trkpt>
      <trkpt lat="46.8049" lon="4.73244">
        <ele>226</ele>
        <time>2020-06-13T20:13:56Z</time>
      </trkpt>
      <trkpt lat="46.80476" lon="4.73256">
        <ele>226</ele>
        <time>2020-06-13T20:14:18Z</time>
      </trkpt>
      <trkpt lat="46.80457" lon="4.73251">
        <ele>227</ele>
        <time>2020-06-13T20:14:43Z</time>
      </trkpt>
      <trkpt lat="46.80438" lon="4.73236">
        <ele>228</ele>
        <time>2020-06-13T20:15:12Z</time>
      </trkpt>
      <trkpt lat="46.80377" lon="4.73227">
        <ele>230</ele>
        <time>2020-06-13T20:16:34Z</time>
      </trkpt>
      <trkpt lat="46.80323" lon="4.73305">
        <ele>230</ele>
        <time>2020-06-13T20:18:15Z</time>
      </trkpt>
      <trkpt lat="46.8028" lon="4.73349">
        <ele>230</ele>
        <time>2020-06-13T20:19:25Z</time>
      </trkpt>
      <trkpt lat="46.80216" lon="4.73442">
        <ele>239</ele>
        <time>2020-06-13T20:21:26Z</time>
      </trkpt>
      <trkpt lat="46.80094" lon="4.73536">
        <ele>263</ele>
        <time>2020-06-13T20:24:30Z</time>
      </trkpt>
      <trkpt lat="46.80001" lon="4.73582">
        <ele>276</ele>
        <time>2020-06-13T20:26:41Z</time>
      </trkpt>
      <trkpt lat="46.79936" lon="4.73575">
        <ele>284</ele>
        <time>2020-06-13T20:28:08Z</time>
      </trkpt>
      <trkpt lat="46.79913" lon="4.73545">
        <ele>286</ele>
        <time>2020-06-13T20:28:49Z</time>
      </trkpt>
      <trkpt lat="46.79879" lon="4.73483">
        <ele>286</ele>
        <time>2020-06-13T20:30:02Z</time>
      </trkpt>
      <trkpt lat="46.79823" lon="4.73425">
        <ele>293</ele>
        <time>2020-06-13T20:31:33Z</time>
      </trkpt>
      <trkpt lat="46.79707" lon="4.73367">
        <ele>300</ele>
        <time>2020-06-13T20:34:17Z</time>
      </trkpt>
      <trkpt lat="46.79589" lon="4.73322">
        <ele>316</ele>
        <time>2020-06-13T20:37:00Z</time>
      </trkpt>
      <trkpt lat="46.7953" lon="4.73345">
        <ele>321</ele>
        <time>2020-06-13T20:38:21Z</time>
      </trkpt>
      <trkpt lat="46.79502" lon="4.73343">
        <ele>326</ele>
        <time>2020-06-13T20:38:58Z</time>
      </trkpt>
      <trkpt lat="46.79483" lon="4.73412">
        <ele>324</ele>
        <time>2020-06-13T20:40:06Z</time>
      </trkpt>
      <trkpt lat="46.79468" lon="4.73498">
        <ele>323</ele>
        <time>2020-06-13T20:41:27Z</time>
      </trkpt>
      <trkpt lat="46.79487" lon="4.73568">
        <ele>323</ele>
        <time>2020-06-13T20:42:36Z</time>
      </trkpt>
      <trkpt lat="46.79483" lon="4.73618">
        <ele>326</ele>
        <time>2020-06-13T20:43:22Z</time>
      </trkpt>
      <trkpt lat="46.79461" lon="4.73738">
        <ele>324</ele>
        <time>2020-06-13T20:45:16Z</time>
      </trkpt>
      <trkpt lat="46.79433" lon="4.73815">
        <ele>325</ele>
        <time>2020-06-13T20:46:35Z</time>
      </trkpt>
      <trkpt lat="46.79428" lon="4.739">
        <ele>322</ele>
        <time>2020-06-13T20:47:53Z</time>
      </trkpt>
      <trkpt lat="46.79391" lon="4.73892">
        <ele>322</ele>
        <time>2020-06-13T20:48:43Z</time>
      </trkpt>
      <trkpt lat="46.79359" lon="4.73901">
        <ele>321</ele>
        <time>2020-06-13T20:49:27Z</time>
      </trkpt>
      <trkpt lat="46.79322" lon="4.73916">
        <ele>319</ele>
        <time>2020-06-13T20:50:18Z</time>
      </trkpt>
      <trkpt lat="46.793" lon="4.73972">
        <ele>316</ele>
        <time>2020-06-13T20:51:17Z</time>
      </trkpt>
      <trkpt lat="46.79275" lon="4.74064">
        <ele>314</ele>
        <time>2020-06-13T20:52:47Z</time>
      </trkpt>
      <trkpt lat="46.79277" lon="4.74111">
        <ele>312</ele>
        <time>2020-06-13T20:53:30Z</time>
      </trkpt>
      <trkpt lat="46.79255" lon="4.74132">
        <ele>310</ele>
        <time>2020-06-13T20:54:05Z</time>
      </trkpt>
      <trkpt lat="46.79221" lon="4.74152">
        <ele>307</ele>
        <time>2020-06-13T20:54:54Z</time>
      </trkpt>
      <trkpt lat="46.79106" lon="4.74223">
        <ele>295</ele>
        <time>2020-06-13T20:57:41Z</time>
      </trkpt>
      <trkpt lat="46.78941" lon="4.74312">
        <ele>263</ele>
        <time>2020-06-13T21:01:36Z</time>
      </trkpt>
      <trkpt lat="46.78949" lon="4.74379">
        <ele>261</ele>
        <time>2020-06-13T21:02:38Z</time>
      </trkpt>
      <trkpt lat="46.78924" lon="4.74385">
        <ele>257</ele>
        <time>2020-06-13T21:03:12Z</time>
      </trkpt>
      <trkpt lat="46.78925" lon="4.74418">
        <ele>255</ele>
        <time>2020-06-13T21:03:42Z</time>
      </trkpt>
      <trkpt lat="46.78883" lon="4.74431">
        <ele>250</ele>
        <time>2020-06-13T21:04:39Z</time>
      </trkpt>
      <trkpt lat="46.78885" lon="4.74489">
        <ele>246</ele>
        <time>2020-06-13T21:05:32Z</time>
      </trkpt>
      <trkpt lat="46.78855" lon="4.74432">
        <ele>247</ele>
        <time>2020-06-13T21:06:38Z</time>
      </trkpt>
      <trkpt lat="46.78793" lon="4.744">
        <ele>241</ele>
        <time>2020-06-13T21:08:06Z</time>
      </trkpt>
      <trkpt lat="46.78756" lon="4.74361">
        <ele>237</ele>
        <time>2020-06-13T21:09:07Z</time>
      </trkpt>
      <trkpt lat="46.78722" lon="4.74299">
        <ele>234</ele>
        <time>2020-06-13T21:10:19Z</time>
      </trkpt>
      <trkpt lat="46.78683" lon="4.74166">
        <ele>230</ele>
        <time>2020-06-13T21:12:31Z</time>
      </trkpt>
      <trkpt lat="46.78626" lon="4.74071">
        <ele>230</ele>
        <time>2020-06-13T21:14:27Z</time>
      </trkpt>
      <trkpt lat="46.78604" lon="4.73909">
        <ele>233</ele>
        <time>2020-06-13T21:16:58Z</time>
      </trkpt>
      <trkpt lat="46.78571" lon="4.73815">
        <ele>232</ele>
        <time>2020-06-13T21:18:34Z</time>
      </trkpt>
      <trkpt lat="46.78552" lon="4.73799">
        <ele>231</ele>
        <time>2020-06-13T21:19:03Z</time>
      </trkpt>
      <trkpt lat="46.78539" lon="4.7382">
        <ele>230</ele>
        <time>2020-06-13T21:19:29Z</time>
      </trkpt>
      <trkpt lat="46.78483" lon="4.73793">
        <ele>229</ele>
        <time>2020-06-13T21:20:48Z</time>
      </trkpt>
      <trkpt lat="46.78473" lon="4.73781">
        <ele>229</ele>
        <time>2020-06-13T21:21:05Z</time>
      </trkpt>
      <trkpt lat="46.78471" lon="4.73774">
        <ele>229</ele>
        <time>2020-06-13T16:28:02Z</time>
      </trkpt>
      <trkpt lat="46.78471" lon="4.73774">
        <ele>229</ele>
        <time>2020-06-13T16:28:02Z</time>
      </trkpt>
      <trkpt lat="46.78462" lon="4.73757">
        <ele>229</ele>
        <time>2020-06-13T16:28:22Z</time>
      </trkpt>
      <trkpt lat="46.78432" lon="4.73724">
        <ele>229</ele>
        <time>2020-06-13T16:29:12Z</time>
      </trkpt>
      <trkpt lat="46.78423" lon="4.73705">
        <ele>230</ele>
        <time>2020-06-13T16:29:33Z</time>
      </trkpt>
      <trkpt lat="46.78422" lon="4.73668">
        <ele>231</ele>
        <time>2020-06-13T16:30:07Z</time>
      </trkpt>
      <trkpt lat="46.784" lon="4.73628">
        <ele>232</ele>
        <time>2020-06-13T16:30:54Z</time>
      </trkpt>
      <trkpt lat="46.78383" lon="4.73582">
        <ele>234</ele>
        <time>2020-06-13T16:31:41Z</time>
      </trkpt>
      <trkpt lat="46.78365" lon="4.73559">
        <ele>235</ele>
        <time>2020-06-13T16:32:13Z</time>
      </trkpt>
      <trkpt lat="46.78342" lon="4.73535">
        <ele>236</ele>
        <time>2020-06-13T16:32:51Z</time>
      </trkpt>
      <trkpt lat="46.78325" lon="4.73521">
        <ele>236</ele>
        <time>2020-06-13T16:33:17Z</time>
      </trkpt>
      <trkpt lat="46.78287" lon="4.73474">
        <ele>239</ele>
        <time>2020-06-13T16:34:23Z</time>
      </trkpt>
      <trkpt lat="46.78275" lon="4.73463">
        <ele>239</ele>
        <time>2020-06-13T16:34:42Z</time>
      </trkpt>
      <trkpt lat="46.7825" lon="4.73572">
        <ele>235</ele>
        <time>2020-06-13T16:36:27Z</time>
      </trkpt>
      <trkpt lat="46.78203" lon="4.73694">
        <ele>228</ele>
        <time>2020-06-13T16:38:35Z</time>
      </trkpt>
      <trkpt lat="46.78198" lon="4.73709">
        <ele>227</ele>
        <time>2020-06-13T16:38:51Z</time>
      </trkpt>
      <trkpt lat="46.78152" lon="4.73784">
        <ele>226</ele>
        <time>2020-06-13T16:40:23Z</time>
      </trkpt>
    </trkseg>
  </trk>
</gpx>